createdAt,value
2018-07-23T00:01:20.044Z,34.08
2018-07-23T00:03:48.415Z,34.43
2018-07-23T00:06:16.787Z,31.37
2018-07-23T00:08:45.143Z,36.03
2018-07-23T00:11:13.519Z,39.33
2018-07-23T00:13:41.869Z,34.78
2018-07-23T00:16:10.244Z,34.55
2018-07-23T00:18:38.612Z,35.48
2018-07-23T00:21:07.013Z,30.25
2018-07-23T00:23:35.355Z,29.42
2018-07-23T00:26:03.783Z,34.45
2018-07-23T00:28:32.133Z,33.30
2018-07-23T00:31:00.476Z,29.85
2018-07-23T00:33:28.855Z,30.23
2018-07-23T00:35:56.909Z,32.33
2018-07-23T00:38:25.287Z,34.45
2018-07-23T00:40:53.623Z,34.75
2018-07-23T00:43:22.012Z,27.70
2018-07-23T00:45:50.361Z,35.15
2018-07-23T00:48:18.728Z,34.20
2018-07-23T00:50:46.788Z,38.40
2018-07-23T00:53:15.158Z,36.28
2018-07-23T00:55:43.495Z,34.15
2018-07-23T00:58:11.859Z,39.30
2018-07-23T01:00:40.311Z,37.53
2018-07-23T01:03:08.431Z,36.70
2018-07-23T01:05:38.285Z,58.70
2018-07-23T01:08:07.126Z,39.05
2018-07-23T01:10:35.480Z,39.65
2018-07-23T01:13:03.856Z,40.63
2018-07-23T01:15:32.187Z,46.28
2018-07-23T01:18:00.572Z,35.98
2018-07-23T01:20:28.947Z,46.05
2018-07-23T01:22:57.327Z,47.30
2018-07-23T01:25:25.676Z,42.65
2018-07-23T01:27:54.096Z,40.78
2018-07-23T01:30:22.483Z,39.30
2018-07-23T01:32:50.903Z,41.90
2018-07-23T01:35:19.284Z,43.45
2018-07-23T01:37:47.678Z,44.88
2018-07-23T01:40:16.042Z,45.73
2018-07-23T01:42:44.427Z,36.95
2018-07-23T01:45:12.773Z,36.53
2018-07-23T01:47:41.152Z,40.43
2018-07-23T01:50:09.500Z,46.53
2018-07-23T01:52:37.901Z,36.75
2018-07-23T01:55:06.519Z,35.20
2018-07-23T01:57:34.931Z,36.30
2018-07-23T02:00:03.316Z,54.83
2018-07-23T02:02:31.707Z,59.30
2018-07-23T02:05:00.116Z,108.63
2018-07-23T02:07:28.512Z,92.37
2018-07-23T02:09:56.631Z,95.38
2018-07-23T02:12:25.024Z,92.30
2018-07-23T02:14:53.411Z,132.67
2018-07-23T02:17:21.823Z,110.17
2018-07-23T02:19:50.169Z,128.55
2018-07-23T02:22:18.604Z,127.45
2018-07-23T02:24:46.988Z,139.50
2018-07-23T02:27:15.380Z,87.25
2018-07-23T02:29:43.807Z,89.47
2018-07-23T02:32:12.164Z,76.55
2018-07-23T02:34:40.568Z,74.65
2018-07-23T02:37:08.948Z,75.10
2018-07-23T02:39:37.344Z,67.00
2018-07-23T02:42:06.203Z,72.62
2018-07-23T02:44:34.598Z,57.23
2018-07-23T02:47:02.987Z,68.52
2018-07-23T02:49:31.417Z,63.30
2018-07-23T02:51:59.785Z,64.55
2018-07-23T02:54:28.203Z,64.53
2018-07-23T02:56:56.604Z,67.95
2018-07-23T02:59:25.014Z,60.48
2018-07-23T03:01:53.389Z,63.30
2018-07-23T03:04:21.824Z,62.05
2018-07-23T03:06:50.192Z,61.35
2018-07-23T03:09:18.632Z,69.30
2018-07-23T03:11:47.000Z,68.87
2018-07-23T03:14:15.380Z,60.10
2018-07-23T03:16:43.732Z,64.32
2018-07-23T03:19:12.137Z,71.40
2018-07-23T03:21:40.603Z,77.22
2018-07-23T03:24:08.963Z,82.85
2018-07-23T03:26:37.318Z,68.92
2018-07-23T03:29:05.784Z,80.90
2018-07-23T03:31:34.151Z,86.90
2018-07-23T03:34:02.543Z,93.03
2018-07-23T03:36:30.903Z,82.70
2018-07-23T03:38:59.283Z,77.25
2018-07-23T03:41:27.636Z,69.77
2018-07-23T03:43:56.033Z,82.22
2018-07-23T03:46:24.439Z,83.55
2018-07-23T03:48:52.816Z,79.55
2018-07-23T03:51:20.895Z,71.87
2018-07-23T03:53:49.298Z,74.80
2018-07-23T03:56:17.752Z,63.10
2018-07-23T03:58:45.878Z,75.28
2018-07-23T04:01:14.269Z,71.12
2018-07-23T04:03:42.663Z,73.75
2018-07-23T04:06:11.018Z,67.37
2018-07-23T04:08:39.448Z,63.05
2018-07-23T04:11:07.527Z,71.90
2018-07-23T04:13:35.952Z,64.40
2018-07-23T04:16:04.365Z,70.80
2018-07-23T04:18:32.751Z,59.30
2018-07-23T04:21:01.137Z,61.70
2018-07-23T04:23:29.235Z,73.62
2018-07-23T04:25:57.593Z,67.62
2018-07-23T04:28:25.971Z,64.27
2018-07-23T04:30:54.355Z,70.05
2018-07-23T04:33:22.772Z,69.22
2018-07-23T04:35:51.156Z,60.38
2018-07-23T04:38:19.511Z,63.75
2018-07-23T04:40:47.901Z,67.60
2018-07-23T04:43:16.256Z,60.08
2018-07-23T04:45:44.666Z,60.60
2018-07-23T04:48:13.065Z,62.95
2018-07-23T04:50:41.520Z,56.92
2018-07-23T04:53:09.875Z,69.85
2018-07-23T04:55:38.253Z,56.23
2018-07-23T04:58:06.324Z,57.73
2018-07-23T05:00:34.427Z,61.42
2018-07-23T05:03:02.786Z,64.03
2018-07-23T05:05:30.887Z,63.40
2018-07-23T05:07:59.234Z,68.55
2018-07-23T05:10:27.690Z,53.23
2018-07-23T05:12:56.029Z,59.03
2018-07-23T05:15:24.428Z,52.10
2018-07-23T05:17:52.904Z,52.00
2018-07-23T05:20:21.284Z,59.73
2018-07-23T05:22:49.632Z,56.65
2018-07-23T05:25:18.010Z,57.90
2018-07-23T05:27:46.463Z,58.73
2018-07-23T05:30:14.903Z,67.30
2018-07-23T05:32:43.243Z,66.90
2018-07-23T05:35:11.824Z,68.67
2018-07-23T05:37:40.484Z,70.50
2018-07-23T05:40:08.936Z,66.47
2018-07-23T05:42:37.410Z,61.80
2018-07-23T05:45:06.190Z,62.15
2018-07-23T05:47:34.572Z,63.83
2018-07-23T05:50:03.004Z,68.10
2018-07-23T05:52:31.356Z,60.45
2018-07-23T05:54:59.739Z,58.48
2018-07-23T05:57:28.096Z,60.88
2018-07-23T05:59:56.501Z,50.80
2018-07-23T06:02:24.857Z,58.73
2018-07-23T06:04:53.283Z,58.10
2018-07-23T06:07:21.639Z,50.85
2018-07-23T06:09:50.139Z,68.57
2018-07-23T06:12:18.493Z,58.25
2018-07-23T06:14:46.888Z,70.95
2018-07-23T06:17:15.231Z,85.47
2018-07-23T06:19:43.615Z,93.50
2018-07-23T06:22:11.980Z,82.20
2018-07-23T06:24:40.387Z,92.50
2018-07-23T06:27:08.756Z,89.40
2018-07-23T06:29:37.176Z,81.90
2018-07-23T06:32:05.776Z,84.50
2018-07-23T06:34:34.199Z,87.17
2018-07-23T06:37:02.552Z,89.50
2018-07-23T06:39:30.653Z,82.67
2018-07-23T06:41:59.872Z,81.60
2018-07-23T06:44:28.264Z,72.85
2018-07-23T06:46:56.616Z,74.20
2018-07-23T06:49:24.988Z,69.92
2018-07-23T06:51:53.332Z,87.17
2018-07-23T06:54:21.732Z,77.55
2018-07-23T06:56:50.081Z,82.40
2018-07-23T06:59:18.472Z,82.15
2018-07-23T07:01:46.857Z,78.25
2018-07-23T07:04:15.263Z,77.67
2018-07-23T07:06:43.620Z,87.30
2018-07-23T07:09:11.751Z,79.12
2018-07-23T07:11:40.100Z,80.90
2018-07-23T07:14:08.772Z,77.35
2018-07-23T07:16:37.207Z,79.25
2018-07-23T07:19:05.711Z,89.03
2018-07-23T07:21:34.059Z,80.72
2018-07-23T07:24:02.440Z,79.15
2018-07-23T07:26:30.831Z,91.47
2018-07-23T07:28:59.184Z,87.30
2018-07-23T07:31:27.577Z,90.35
2018-07-23T07:33:56.027Z,78.30
2018-07-23T07:36:24.461Z,86.12
2018-07-23T07:38:52.824Z,79.75
2018-07-23T07:41:21.222Z,76.17
2018-07-23T07:43:49.573Z,81.17
2018-07-23T07:46:17.980Z,74.58
2018-07-23T07:48:46.361Z,75.45
2018-07-23T07:51:14.740Z,71.25
2018-07-23T07:53:43.087Z,71.10
2018-07-23T07:56:11.587Z,73.30
2018-07-23T07:58:39.934Z,67.15
2018-07-23T08:01:08.343Z,65.00
2018-07-23T08:03:36.703Z,68.28
2018-07-23T08:06:05.114Z,70.25
2018-07-23T08:08:33.511Z,77.78
2018-07-23T08:11:01.920Z,80.60
2018-07-23T08:13:30.267Z,72.95
2018-07-23T08:15:58.689Z,68.65
2018-07-23T08:18:27.096Z,68.00
2018-07-23T08:20:55.489Z,68.90
2018-07-23T08:23:23.849Z,70.80
2018-07-23T08:25:52.239Z,63.13
2018-07-23T08:28:20.617Z,64.85
2018-07-23T08:30:49.121Z,66.65
2018-07-23T08:33:24.111Z,56.70
2018-07-23T08:35:52.491Z,68.02
2018-07-23T08:38:20.852Z,61.50
2018-07-23T08:40:49.245Z,52.62
2018-07-23T08:43:18.004Z,66.60
2018-07-23T08:45:46.404Z,59.15
2018-07-23T08:48:14.848Z,65.40
2018-07-23T08:50:43.248Z,66.87
2018-07-23T08:53:11.692Z,60.53
2018-07-23T08:55:40.120Z,49.18
2018-07-23T08:58:08.500Z,47.70
2018-07-23T09:00:36.622Z,51.10
2018-07-23T09:03:04.987Z,49.73
2018-07-23T09:05:33.385Z,49.03
2018-07-23T09:08:01.744Z,45.50
2018-07-23T09:10:30.164Z,47.53
2018-07-23T09:13:01.485Z,53.43
2018-07-23T09:15:29.912Z,50.67
2018-07-23T09:17:58.280Z,53.03
2018-07-23T09:20:26.668Z,54.80
2018-07-23T09:22:55.021Z,49.60
2018-07-23T09:25:26.360Z,56.30
2018-07-23T09:27:54.708Z,46.13
2018-07-23T09:30:28.423Z,43.23
2018-07-23T09:32:56.810Z,56.07
2018-07-23T09:35:25.171Z,47.77
2018-07-23T09:37:53.575Z,48.03
2018-07-23T09:40:22.063Z,50.00
2018-07-23T09:42:50.461Z,49.87
2018-07-23T09:45:18.847Z,43.77
2018-07-23T09:47:47.230Z,41.33
2018-07-23T09:50:15.588Z,39.00
2018-07-23T09:52:44.126Z,39.90
2018-07-23T09:55:12.533Z,42.20
2018-07-23T09:57:40.964Z,41.43
2018-07-23T10:00:09.339Z,30.53
2018-07-23T10:02:37.724Z,51.90
2018-07-23T10:05:06.208Z,46.53
2018-07-23T10:07:34.595Z,28.60
2018-07-23T10:10:02.981Z,38.93
2018-07-23T10:12:31.371Z,26.77
2018-07-23T10:14:59.735Z,26.00
2018-07-23T10:17:28.111Z,37.60
2018-07-23T10:19:56.460Z,35.80
2018-07-23T10:22:24.937Z,39.00
2018-07-23T10:24:53.297Z,34.70
2018-07-23T10:27:21.684Z,35.90
2018-07-23T10:29:50.070Z,34.53
2018-07-23T10:32:18.461Z,32.80
2018-07-23T10:34:46.831Z,32.90
2018-07-23T10:37:15.212Z,30.50
2018-07-23T10:39:43.810Z,32.00
2018-07-23T10:42:12.208Z,32.07
2018-07-23T10:44:40.593Z,23.90
2018-07-23T10:47:08.968Z,28.03
2018-07-23T10:49:37.352Z,29.57
2018-07-23T10:52:05.812Z,30.53
2018-07-23T10:54:34.183Z,24.20
2018-07-23T10:57:02.603Z,32.33
2018-07-23T10:59:30.994Z,24.90
2018-07-23T11:01:59.432Z,32.10
2018-07-23T11:04:27.959Z,32.23
2018-07-23T11:06:56.448Z,30.90
2018-07-23T11:09:25.072Z,28.60
2018-07-23T11:11:53.512Z,26.10
2018-07-23T11:14:22.176Z,22.13
2018-07-23T11:16:50.775Z,21.60
2018-07-23T11:19:19.621Z,26.93
2018-07-23T11:21:48.020Z,24.30
2018-07-23T11:24:16.534Z,32.83
2018-07-23T11:26:45.017Z,24.77
2018-07-23T11:34:54.279Z,23.87
2018-07-23T11:37:22.736Z,27.13
2018-07-23T11:39:57.027Z,19.23
2018-07-23T11:42:38.879Z,28.30
2018-07-23T11:45:07.279Z,25.20
2018-07-23T11:47:35.383Z,23.10
2018-07-23T11:50:03.851Z,22.40
2018-07-23T11:52:32.220Z,20.60
2018-07-23T11:55:00.563Z,20.07
2018-07-23T11:57:28.928Z,31.80
2018-07-23T11:59:57.277Z,19.77
2018-07-23T12:02:25.677Z,18.27
2018-07-23T12:04:54.045Z,22.50
2018-07-23T12:07:22.433Z,21.93
2018-07-23T12:09:50.804Z,24.90
2018-07-23T12:12:19.164Z,23.20
2018-07-23T12:14:47.571Z,18.80
2018-07-23T12:17:15.976Z,17.13
2018-07-23T12:19:44.341Z,20.73
2018-07-23T12:22:12.691Z,19.20
2018-07-23T12:24:41.067Z,20.10
2018-07-23T12:27:09.405Z,16.57
2018-07-23T12:29:37.779Z,21.07
2018-07-23T12:32:06.244Z,20.23
2018-07-23T12:34:34.616Z,17.53
2018-07-23T12:37:02.995Z,18.57
2018-07-23T12:39:31.462Z,21.50
2018-07-23T12:41:59.740Z,25.63
2018-07-23T12:44:28.109Z,20.60
2018-07-23T12:46:56.464Z,22.03
2018-07-23T12:49:24.829Z,20.23
2018-07-23T12:51:53.205Z,22.13
2018-07-23T12:54:21.581Z,25.83
2018-07-23T12:56:49.942Z,19.33
2018-07-23T12:59:18.314Z,20.33
2018-07-23T13:01:46.668Z,19.00
2018-07-23T13:04:15.334Z,22.87
2018-07-23T13:06:43.748Z,19.93
2018-07-23T13:09:13.115Z,23.10
2018-07-23T13:11:41.184Z,21.70
2018-07-23T13:14:09.648Z,23.20
2018-07-23T13:16:38.006Z,22.70
2018-07-23T13:19:06.446Z,22.73
2018-07-23T13:21:34.828Z,25.63
2018-07-23T13:24:03.227Z,20.90
2018-07-23T13:26:31.709Z,23.83
2018-07-23T13:29:00.116Z,21.93
2018-07-23T13:31:28.474Z,20.00
2018-07-23T13:33:56.837Z,19.13
2018-07-23T13:36:25.204Z,20.00
2018-07-23T13:38:53.591Z,26.53
2018-07-23T13:41:21.971Z,21.40
2018-07-23T13:46:25.014Z,24.87
2018-07-23T13:48:53.429Z,17.60
2018-07-23T13:51:21.500Z,20.07
2018-07-23T13:53:49.931Z,18.13
2018-07-23T13:56:18.621Z,22.63
2018-07-23T13:58:47.103Z,24.10
2018-07-23T14:01:15.554Z,19.87
2018-07-23T14:03:43.942Z,20.60
2018-07-23T14:06:12.648Z,23.33
2018-07-23T14:08:41.071Z,17.73
2018-07-23T14:11:09.727Z,26.90
2018-07-23T14:13:38.093Z,25.87
2018-07-23T14:16:07.290Z,22.93
2018-07-23T14:18:35.668Z,27.27
2018-07-23T14:21:04.205Z,21.67
2018-07-23T14:23:32.652Z,17.43
2018-07-23T14:26:01.252Z,23.13
2018-07-23T14:28:29.871Z,18.70
2018-07-23T14:30:58.272Z,19.93
2018-07-23T14:33:26.998Z,17.37
2018-07-23T14:35:55.467Z,15.77
2018-07-23T14:38:23.811Z,19.77
2018-07-23T14:40:52.240Z,18.73
2018-07-23T14:43:21.169Z,18.13
2018-07-23T14:45:49.960Z,22.00
2018-07-23T14:48:18.390Z,17.27
2018-07-23T14:50:46.916Z,18.57
2018-07-23T14:53:15.272Z,20.87
2018-07-23T14:55:43.640Z,19.73
2018-07-23T14:58:12.052Z,18.67
2018-07-23T15:00:40.437Z,17.30
2018-07-23T15:03:08.778Z,18.53
2018-07-23T15:05:37.187Z,15.10
2018-07-23T15:08:05.736Z,24.30
2018-07-23T15:10:34.368Z,19.43
2018-07-23T15:13:02.815Z,18.50
2018-07-23T15:15:32.012Z,19.43
2018-07-23T15:18:01.444Z,17.47
2018-07-23T15:20:29.851Z,18.43
2018-07-23T15:22:58.213Z,19.13
2018-07-23T15:25:26.368Z,19.90
2018-07-23T15:27:54.784Z,29.57
2018-07-23T15:30:23.200Z,18.83
2018-07-23T15:32:51.559Z,19.40
2018-07-23T15:35:19.999Z,20.83
2018-07-23T15:37:48.352Z,26.00
2018-07-23T15:40:16.751Z,16.57
2018-07-23T15:42:45.185Z,17.83
2018-07-23T15:45:13.681Z,18.60
2018-07-23T15:47:42.055Z,18.57
2018-07-23T15:50:10.433Z,18.23
2018-07-23T15:52:38.963Z,18.27
2018-07-23T15:55:07.388Z,25.40
2018-07-23T15:57:35.767Z,20.37
2018-07-23T16:00:04.676Z,16.43
2018-07-23T16:02:33.062Z,20.03
2018-07-23T16:05:01.471Z,18.20
2018-07-23T16:07:29.859Z,29.30
2018-07-23T16:09:58.241Z,21.07
2018-07-23T16:12:26.720Z,22.70
2018-07-23T16:14:55.084Z,20.80
2018-07-23T16:17:23.460Z,23.57
2018-07-23T16:19:51.812Z,20.50
2018-07-23T16:22:20.208Z,18.30
2018-07-23T16:24:48.579Z,19.40
2018-07-23T16:27:17.079Z,19.30
2018-07-23T16:29:45.468Z,19.57
2018-07-23T16:32:14.295Z,18.77
2018-07-23T16:34:42.680Z,18.67
2018-07-23T16:37:11.095Z,22.10
2018-07-23T16:39:39.451Z,18.73
2018-07-23T16:42:07.935Z,23.50
2018-07-23T16:44:36.407Z,17.00
2018-07-23T16:47:04.853Z,21.00
2018-07-23T16:49:33.183Z,18.63
2018-07-23T16:52:01.588Z,22.73
2018-07-23T16:54:29.925Z,17.07
2018-07-23T16:56:58.304Z,19.80
2018-07-23T16:59:26.375Z,27.23
2018-07-23T17:01:54.735Z,17.43
2018-07-23T17:04:23.087Z,18.27
2018-07-23T17:06:51.476Z,19.83
2018-07-23T17:09:19.833Z,19.83
2018-07-23T17:11:48.259Z,21.60
2018-07-23T17:14:16.607Z,21.70
2018-07-23T17:16:44.988Z,23.13
2018-07-23T17:19:13.347Z,18.77
2018-07-23T17:21:41.726Z,18.80
2018-07-23T17:24:10.095Z,19.03
2018-07-23T17:26:38.515Z,18.00
2018-07-23T17:29:06.893Z,21.53
2018-07-23T17:31:35.296Z,19.60
2018-07-23T17:34:03.645Z,20.50
2018-07-23T17:36:32.035Z,18.40
2018-07-23T17:39:00.389Z,17.47
2018-07-23T17:41:28.780Z,19.57
2018-07-23T17:43:57.136Z,17.90
2018-07-23T17:46:25.487Z,23.80
2018-07-23T17:48:53.567Z,18.40
2018-07-23T17:51:21.671Z,17.40
2018-07-23T17:53:50.028Z,18.30
2018-07-23T17:56:18.392Z,21.77
2018-07-23T17:58:46.740Z,22.23
2018-07-23T18:01:15.103Z,19.17
2018-07-23T18:03:43.459Z,15.60
2018-07-23T18:06:11.859Z,18.63
2018-07-23T18:08:40.224Z,17.50
2018-07-23T18:11:08.620Z,19.50
2018-07-23T18:13:36.980Z,15.10
2018-07-23T18:16:05.331Z,19.50
2018-07-23T18:18:33.711Z,18.93
2018-07-23T18:21:01.798Z,16.07
2018-07-23T18:23:30.265Z,16.80
2018-07-23T18:25:58.651Z,29.63
2018-07-23T18:28:27.054Z,19.30
2018-07-23T18:30:55.755Z,17.90
2018-07-23T18:33:24.151Z,18.70
2018-07-23T18:35:52.511Z,21.47
2018-07-23T18:38:20.983Z,17.20
2018-07-23T18:40:49.261Z,17.20
2018-07-23T18:43:17.641Z,21.97
2018-07-23T18:45:46.025Z,22.67
2018-07-23T18:49:31.896Z,19.13
2018-07-23T18:52:00.024Z,16.67
2018-07-23T18:54:29.559Z,22.50
2018-07-23T18:56:58.899Z,16.47
2018-07-23T18:59:27.308Z,18.13
2018-07-23T19:01:56.455Z,18.67
2018-07-23T19:04:24.533Z,19.73
2018-07-23T19:06:52.996Z,19.67
2018-07-23T19:09:22.407Z,19.20
2018-07-23T19:11:51.873Z,21.30
2018-07-23T19:14:20.593Z,17.70
2018-07-23T19:16:49.607Z,23.17
2018-07-23T19:19:18.033Z,21.80
2018-07-23T19:21:46.371Z,22.30
2018-07-23T19:24:14.795Z,22.60
2018-07-23T19:26:43.191Z,23.30
2018-07-23T19:29:11.604Z,22.93
2018-07-23T19:31:39.986Z,19.40
2018-07-23T19:34:08.363Z,21.90
2018-07-23T19:36:36.539Z,28.03
2018-07-23T19:39:09.392Z,21.00
2018-07-23T19:41:37.906Z,19.97
2018-07-23T19:44:06.484Z,21.43
2018-07-23T19:46:34.881Z,21.13
2018-07-23T19:49:03.375Z,20.30
2018-07-23T19:51:31.800Z,22.67
2018-07-23T19:54:00.196Z,22.90
2018-07-23T19:56:28.591Z,25.63
2018-07-23T19:58:56.743Z,20.03
2018-07-23T20:01:25.104Z,21.47
2018-07-23T20:03:53.540Z,26.70
2018-07-23T20:06:23.115Z,21.80
2018-07-23T20:08:52.443Z,23.83
2018-07-23T20:11:21.659Z,26.33
2018-07-23T20:13:50.151Z,23.43
2018-07-23T20:16:19.064Z,21.15
2018-07-23T20:18:47.532Z,25.77
2018-07-23T20:21:15.949Z,23.83
2018-07-23T20:23:44.667Z,22.75
2018-07-23T20:26:12.778Z,24.43
2018-07-23T20:28:41.230Z,22.67
2018-07-23T20:31:09.633Z,25.95
2018-07-23T20:33:39.761Z,31.40
2018-07-23T20:36:08.811Z,23.92
2018-07-23T20:38:37.272Z,27.70
2018-07-23T20:41:05.641Z,24.60
2018-07-23T20:43:34.265Z,23.77
2018-07-23T20:46:02.849Z,28.47
2018-07-23T20:48:31.251Z,24.15
2018-07-23T20:50:59.636Z,29.05
2018-07-23T20:53:28.069Z,24.50
2018-07-23T20:55:56.421Z,25.45
2018-07-23T20:58:24.834Z,32.53
2018-07-23T21:00:53.197Z,25.80
2018-07-23T21:03:21.597Z,25.43
2018-07-23T21:05:49.987Z,26.50
2018-07-23T21:08:18.079Z,31.05
2018-07-23T21:10:46.447Z,27.65
2018-07-23T21:13:14.865Z,32.23
2018-07-23T21:15:43.258Z,26.00
2018-07-23T21:18:11.655Z,29.98
2018-07-23T21:20:40.029Z,26.20
2018-07-23T21:23:08.639Z,29.60
2018-07-23T21:25:37.018Z,24.43
2018-07-23T21:28:05.535Z,29.00
2018-07-23T21:30:33.899Z,26.73
2018-07-23T21:33:02.264Z,27.70
2018-07-23T21:35:30.627Z,30.23
2018-07-23T21:38:05.368Z,29.40
2018-07-23T21:40:33.728Z,29.32
2018-07-23T21:43:02.101Z,31.75
2018-07-23T21:45:30.493Z,31.50
2018-07-23T21:47:58.883Z,33.35
2018-07-23T21:50:27.251Z,32.13
2018-07-23T21:52:55.661Z,35.13
2018-07-23T21:55:24.057Z,33.15
2018-07-23T21:57:52.508Z,33.02
2018-07-23T22:00:20.935Z,37.90
2018-07-23T22:02:49.321Z,31.48
2018-07-23T22:05:17.701Z,33.53
2018-07-23T22:07:46.067Z,31.12
2018-07-23T22:10:14.444Z,33.95
2018-07-23T22:12:42.519Z,35.28
2018-07-23T22:15:11.620Z,28.65
2018-07-23T22:17:39.988Z,32.48
2018-07-23T22:20:09.075Z,30.32
2018-07-23T22:22:37.142Z,32.33
2018-07-23T22:25:05.250Z,30.92
2018-07-23T22:27:33.635Z,28.83
2018-07-23T22:30:02.101Z,31.12
2018-07-23T22:32:30.417Z,32.55
2018-07-23T22:34:58.788Z,33.90
2018-07-23T22:37:27.156Z,34.10
2018-07-23T22:39:55.548Z,34.55
2018-07-23T22:42:23.961Z,31.00
2018-07-23T22:44:52.331Z,36.42
2018-07-23T22:47:20.678Z,33.98
2018-07-23T22:49:49.067Z,32.67
2018-07-23T22:52:17.487Z,36.05
2018-07-23T22:54:45.839Z,30.43
2018-07-23T22:57:14.266Z,28.80
2018-07-23T22:59:42.639Z,32.53
2018-07-23T23:02:11.009Z,31.80
2018-07-23T23:04:39.403Z,32.88
2018-07-23T23:07:07.771Z,30.35
2018-07-23T23:09:36.128Z,29.57
2018-07-23T23:12:04.604Z,38.95
2018-07-23T23:14:32.991Z,34.63
2018-07-23T23:17:01.537Z,37.85
2018-07-23T23:19:30.184Z,33.98
2018-07-23T23:21:58.555Z,32.98
2018-07-23T23:24:27.005Z,32.53
2018-07-23T23:26:55.364Z,36.60
2018-07-23T23:29:23.796Z,39.53
2018-07-23T23:31:52.175Z,36.00
2018-07-23T23:34:20.556Z,35.98
2018-07-23T23:36:48.936Z,30.90
2018-07-23T23:39:17.280Z,33.58
2018-07-23T23:41:45.647Z,33.45
2018-07-23T23:44:13.988Z,36.23
2018-07-23T23:46:42.343Z,35.05
2018-07-23T23:49:10.707Z,35.40
2018-07-23T23:51:39.088Z,37.35
2018-07-23T23:54:07.445Z,33.95
2018-07-23T23:56:35.807Z,37.48
2018-07-23T23:59:04.278Z,32.90
